TimeEST,TemperatureF,Dew PointF,Humidity,Sea Level PressureIn,VisibilityMPH,Wind Direction,Wind SpeedMPH,Gust SpeedMPH,PrecipitationIn,Events,Conditions,WindDirDegrees,DateUTC
12:55 AM,59.0,54.0,83,29.62,10.0,SW,11.5,-,N/A,,Overcast,220,2012-12-18 05:55:00
12:57 AM,59.0,53.6,82,29.63,10.0,SW,11.5,-,N/A,,Overcast,220,2012-12-18 05:57:00
1:55 AM,58.8,54.1,84,29.63,10.0,SW,10.4,-,N/A,,Overcast,220,2012-12-18 06:55:00
2:31 AM,59.0,53.6,82,29.62,10.0,SW,11.5,21.9,N/A,,Overcast,230,2012-12-18 07:31:00
2:55 AM,58.5,53.8,84,29.63,10.0,SW,11.5,20.7,N/A,,Mostly Cloudy,220,2012-12-18 07:55:00
3:00 AM,59.0,53.6,82,29.64,10.0,SW,11.5,-,N/A,,Mostly Cloudy,220,2012-12-18 08:00:00
3:06 AM,59.0,53.6,82,29.64,10.0,WSW,11.5,19.6,N/A,,Mostly Cloudy,240,2012-12-18 08:06:00
3:09 AM,59.0,53.6,82,29.64,10.0,SW,12.7,19.6,N/A,,Mostly Cloudy,230,2012-12-18 08:09:00
3:55 AM,57.4,54.0,88,29.62,10.0,SW,11.5,-,N/A,,Partly Cloudy,230,2012-12-18 08:55:00
4:55 AM,56.1,54.0,92,29.62,10.0,SW,11.5,-,N/A,,Clear,230,2012-12-18 09:55:00
5:55 AM,55.2,54.1,96,29.62,10.0,WSW,9.2,-,N/A,,Clear,240,2012-12-18 10:55:00
6:55 AM,54.9,54.9,100,29.63,10.0,SW,9.2,-,N/A,,Clear,230,2012-12-18 11:55:00
7:55 AM,55.4,55.4,100,29.65,10.0,SW,12.7,-,N/A,,Clear,230,2012-12-18 12:55:00
8:55 AM,57.0,55.4,94,29.65,10.0,WSW,12.7,-,N/A,,Overcast,240,2012-12-18 13:55:00
9:55 AM,57.9,54.3,88,29.66,10.0,WSW,13.8,-,N/A,,Scattered Clouds,250,2012-12-18 14:55:00
10:55 AM,60.8,52.3,74,29.65,10.0,West,9.2,-,N/A,,Scattered Clouds,260,2012-12-18 15:55:00
11:55 AM,61.2,45.5,56,29.64,10.0,West,10.4,20.7,N/A,,Mostly Cloudy,280,2012-12-18 16:55:00
12:55 PM,62.6,39.6,43,29.61,10.0,West,13.8,-,N/A,,Partly Cloudy,260,2012-12-18 17:55:00
1:55 PM,60.6,35.4,39,29.62,10.0,West,12.7,-,N/A,,Overcast,280,2012-12-18 18:55:00
2:55 PM,59.9,36.7,42,29.63,10.0,West,12.7,-,N/A,,Mostly Cloudy,260,2012-12-18 19:55:00
3:55 PM,59.0,31.1,35,29.64,10.0,West,13.8,19.6,N/A,,Partly Cloudy,270,2012-12-18 20:55:00
4:55 PM,58.5,29.8,34,29.68,10.0,WNW,15.0,-,N/A,,Mostly Cloudy,290,2012-12-18 21:55:00
5:55 PM,55.6,27.5,34,29.70,10.0,WNW,10.4,-,N/A,,Partly Cloudy,290,2012-12-18 22:55:00
6:55 PM,54.3,26.2,34,29.73,10.0,WNW,4.6,-,N/A,,Mostly Cloudy,300,2012-12-18 23:55:00
7:55 PM,51.8,26.2,37,29.78,10.0,WNW,9.2,-,N/A,,Clear,300,2012-12-19 00:55:00
8:55 PM,48.2,29.5,48,29.81,10.0,WNW,5.8,-,N/A,,Clear,300,2012-12-19 01:55:00
9:55 PM,47.7,29.5,49,29.83,10.0,West,6.9,-,N/A,,Clear,280,2012-12-19 02:55:00
10:55 PM,46.4,27.3,47,29.85,10.0,West,5.8,-,N/A,,Clear,280,2012-12-19 03:55:00
11:55 PM,43.0,27.9,55,29.85,10.0,WSW,6.9,-,N/A,,Partly Cloudy,250,2012-12-19 04:55:00